createdAt,value
2017-09-04T00:00:33.148Z,16.61
2017-09-04T00:02:25.459Z,16.50
2017-09-04T00:03:25.772Z,16.50
2017-09-04T00:05:19.044Z,16.52
2017-09-04T00:06:19.267Z,16.64
2017-09-04T00:08:13.435Z,16.45
2017-09-04T00:09:13.675Z,16.42
2017-09-04T00:11:06.948Z,16.53
2017-09-04T00:12:07.187Z,16.43
2017-09-04T00:14:01.436Z,16.60
2017-09-04T00:15:01.454Z,16.52
2017-09-04T00:16:56.196Z,16.53
2017-09-04T00:17:55.940Z,16.49
2017-09-04T00:19:50.420Z,16.43
2017-09-04T00:20:50.652Z,16.46
2017-09-04T00:22:44.893Z,16.48
2017-09-04T00:23:44.924Z,16.45
2017-09-04T00:25:39.709Z,16.43
2017-09-04T00:26:39.437Z,16.39
2017-09-04T00:28:33.876Z,16.31
2017-09-04T00:29:33.908Z,16.34
2017-09-04T00:31:28.405Z,16.38
2017-09-04T00:32:28.420Z,16.34
2017-09-04T00:34:22.869Z,16.38
2017-09-04T00:35:22.925Z,16.31
2017-09-04T00:37:17.388Z,16.39
2017-09-04T00:38:17.669Z,16.33
2017-09-04T00:40:11.869Z,16.39
2017-09-04T00:41:11.884Z,16.39
2017-09-04T00:43:06.341Z,16.31
2017-09-04T00:44:15.008Z,16.27
2017-09-04T00:46:00.885Z,16.34
2017-09-04T00:47:01.021Z,16.33
2017-09-04T00:48:54.469Z,16.30
2017-09-04T00:49:54.357Z,16.25
2017-09-04T00:51:48.885Z,16.21
2017-09-04T00:52:48.936Z,16.23
2017-09-04T00:54:43.317Z,16.23
2017-09-04T00:55:43.349Z,16.24
2017-09-04T00:57:37.833Z,16.20
2017-09-04T00:58:39.013Z,16.12
2017-09-04T01:00:32.294Z,16.08
2017-09-04T01:01:32.326Z,16.09
2017-09-04T01:03:26.798Z,16.15
2017-09-04T01:04:26.814Z,16.17
2017-09-04T01:06:21.286Z,16.12
2017-09-04T01:07:22.502Z,16.09
2017-09-04T01:09:15.782Z,16.05
2017-09-04T01:10:15.806Z,16.05
2017-09-04T01:12:10.238Z,16.11
2017-09-04T01:13:10.518Z,16.07
2017-09-04T01:15:04.823Z,16.09
2017-09-04T01:16:04.774Z,16.09
2017-09-04T01:17:59.498Z,16.02
2017-09-04T01:18:59.408Z,16.05
2017-09-04T01:20:53.774Z,15.92
2017-09-04T01:21:53.878Z,15.92
2017-09-04T01:23:48.231Z,15.97
2017-09-04T01:24:48.263Z,16.01
2017-09-04T01:26:42.751Z,15.93
2017-09-04T01:27:42.964Z,15.93
2017-09-04T01:29:36.366Z,15.97
2017-09-04T01:30:36.252Z,15.97
2017-09-04T01:32:29.739Z,15.83
2017-09-04T01:33:37.380Z,15.93
2017-09-04T01:35:24.213Z,15.89
2017-09-04T01:36:24.236Z,15.90
2017-09-04T01:38:19.164Z,15.86
2017-09-04T01:39:19.164Z,15.74
2017-09-04T01:41:13.180Z,15.75
2017-09-04T01:42:13.220Z,15.83
2017-09-04T01:44:07.700Z,15.84
2017-09-04T01:45:07.935Z,15.69
2017-09-04T01:47:02.173Z,15.80
2017-09-04T01:48:02.221Z,15.78
2017-09-04T01:50:04.332Z,15.76
2017-09-04T01:50:56.853Z,15.80
2017-09-04T01:52:51.182Z,15.71
2017-09-04T01:53:51.189Z,15.74
2017-09-04T01:55:45.837Z,15.72
2017-09-04T01:56:45.693Z,15.64
2017-09-04T01:58:40.141Z,15.59
2017-09-04T01:59:40.181Z,15.72
2017-09-04T02:01:34.653Z,15.65
2017-09-04T02:02:34.814Z,15.59
2017-09-04T02:04:29.149Z,15.72
2017-09-04T02:05:29.338Z,15.56
2017-09-04T02:07:23.614Z,15.64
2017-09-04T02:08:23.718Z,15.62
2017-09-04T02:10:18.197Z,15.60
2017-09-04T02:11:18.141Z,15.57
2017-09-04T02:13:12.637Z,15.53
2017-09-04T02:14:13.022Z,15.51
2017-09-04T02:16:07.094Z,15.49
2017-09-04T02:17:07.134Z,15.57
2017-09-04T02:19:01.686Z,15.50
2017-09-04T02:20:01.606Z,15.46
2017-09-04T02:21:56.062Z,15.44
2017-09-04T02:23:04.734Z,15.49
2017-09-04T02:24:49.198Z,15.47
2017-09-04T02:25:49.399Z,15.41
2017-09-04T02:27:43.671Z,15.43
2017-09-04T02:28:43.734Z,15.36
2017-09-04T02:30:38.198Z,15.36
2017-09-04T02:31:38.191Z,15.39
2017-09-04T02:33:32.646Z,15.44
2017-09-04T02:34:32.686Z,15.27
2017-09-04T02:36:27.231Z,15.35
2017-09-04T02:37:27.174Z,15.29
2017-09-04T02:39:21.679Z,15.32
2017-09-04T02:40:21.687Z,15.36
2017-09-04T02:42:17.135Z,15.31
2017-09-04T02:43:17.319Z,15.28
2017-09-04T02:45:11.668Z,15.31
2017-09-04T02:46:11.672Z,15.27
2017-09-04T02:48:06.223Z,15.21
2017-09-04T02:49:06.343Z,15.25
2017-09-04T02:51:02.151Z,15.23
2017-09-04T02:52:02.175Z,15.21
2017-09-04T02:53:56.608Z,15.21
2017-09-04T02:54:56.647Z,15.27
2017-09-04T02:56:51.120Z,15.28
2017-09-04T02:57:51.144Z,15.17
2017-09-04T02:59:45.624Z,15.19
2017-09-04T03:00:45.719Z,15.27
2017-09-04T03:02:40.080Z,15.23
2017-09-04T03:03:40.112Z,15.20
2017-09-04T03:05:34.584Z,15.23
2017-09-04T03:06:34.975Z,15.27
2017-09-04T03:08:29.185Z,15.19
2017-09-04T03:09:29.360Z,15.10
2017-09-04T03:11:23.536Z,15.19
2017-09-04T03:12:32.216Z,15.23
2017-09-04T03:14:18.048Z,15.21
2017-09-04T03:15:18.080Z,15.17
2017-09-04T03:17:12.576Z,15.25
2017-09-04T03:18:12.568Z,15.21
2017-09-04T03:20:11.001Z,15.25
2017-09-04T03:21:10.941Z,15.23
2017-09-04T03:23:04.145Z,15.23
2017-09-04T03:24:04.049Z,15.16
2017-09-04T03:25:58.760Z,15.19
2017-09-04T03:26:58.537Z,15.20
2017-09-04T03:29:01.625Z,15.16
2017-09-04T03:29:53.033Z,15.13
2017-09-04T03:31:47.529Z,15.14
2017-09-04T03:32:47.529Z,15.06
2017-09-04T03:34:41.978Z,15.06
2017-09-04T03:35:42.017Z,14.98
2017-09-04T03:37:36.490Z,15.06
2017-09-04T03:38:36.777Z,14.95
2017-09-04T03:40:32.466Z,14.94
2017-09-04T03:41:32.514Z,14.96
2017-09-04T03:43:27.130Z,14.89
2017-09-04T03:44:27.018Z,14.95
2017-09-04T03:46:21.482Z,14.98
2017-09-04T03:47:21.506Z,14.95
2017-09-04T03:49:15.970Z,14.98
2017-09-04T03:50:15.995Z,14.92
2017-09-04T03:52:10.474Z,14.89
2017-09-04T03:53:10.626Z,14.83
2017-09-04T03:55:04.066Z,14.89
2017-09-04T03:56:04.074Z,14.81
2017-09-04T03:57:59.523Z,14.88
2017-09-04T03:58:59.564Z,14.89
2017-09-04T04:00:54.042Z,14.86
2017-09-04T04:02:03.170Z,14.73
2017-09-04T04:03:48.515Z,14.80
2017-09-04T04:04:48.547Z,14.69
2017-09-04T04:06:43.211Z,14.64
2017-09-04T04:07:43.035Z,14.75
2017-09-04T04:09:37.499Z,14.65
2017-09-04T04:10:37.522Z,14.61
2017-09-04T04:12:32.002Z,14.65
2017-09-04T04:13:32.068Z,14.69
2017-09-04T04:15:27.187Z,14.68
2017-09-04T04:16:26.540Z,14.73
2017-09-04T04:18:21.003Z,14.73
2017-09-04T04:19:21.315Z,14.75
2017-09-04T04:21:15.563Z,14.70
2017-09-04T04:22:15.763Z,14.65
2017-09-04T04:24:10.132Z,14.72
2017-09-04T04:25:09.979Z,14.60
2017-09-04T04:27:04.460Z,14.60
2017-09-04T04:28:04.606Z,14.57
2017-09-04T04:29:59.219Z,14.58
2017-09-04T04:30:59.156Z,14.58
2017-09-04T04:32:52.404Z,14.62
2017-09-04T04:33:52.444Z,14.62
2017-09-04T04:35:46.916Z,14.57
2017-09-04T04:36:47.204Z,14.65
2017-09-04T04:38:41.419Z,14.57
2017-09-04T04:39:41.436Z,14.65
2017-09-04T04:41:35.916Z,14.69
2017-09-04T04:42:35.932Z,14.69
2017-09-04T04:44:29.135Z,14.61
2017-09-04T04:45:29.132Z,14.65
2017-09-04T04:47:23.581Z,14.72
2017-09-04T04:48:23.597Z,14.68
2017-09-04T04:50:18.068Z,14.58
2017-09-04T04:51:26.797Z,14.58
2017-09-04T04:53:12.550Z,14.55
2017-09-04T04:54:12.589Z,14.70
2017-09-04T04:56:07.270Z,14.54
2017-09-04T04:57:07.109Z,14.60
2017-09-04T04:59:00.605Z,14.62
2017-09-04T05:00:00.581Z,14.58
2017-09-04T05:01:55.061Z,14.57
2017-09-04T05:02:55.389Z,14.60
2017-09-04T05:04:49.773Z,14.65
2017-09-04T05:05:49.581Z,14.55
2017-09-04T05:07:44.302Z,14.58
2017-09-04T05:08:44.102Z,14.58
2017-09-04T05:10:38.533Z,14.57
2017-09-04T05:11:38.829Z,14.62
2017-09-04T05:13:33.029Z,14.54
2017-09-04T05:14:33.102Z,14.73
2017-09-04T05:16:27.502Z,14.64
2017-09-04T05:17:27.542Z,14.60
2017-09-04T05:19:20.990Z,14.70
2017-09-04T05:20:21.032Z,14.62
2017-09-04T05:22:14.817Z,14.77
2017-09-04T05:23:14.770Z,14.73
2017-09-04T05:25:08.999Z,14.64
2017-09-04T05:26:09.511Z,14.69
2017-09-04T05:28:04.423Z,14.75
2017-09-04T05:29:02.631Z,14.72
2017-09-04T05:30:57.103Z,14.78
2017-09-04T05:31:57.135Z,14.84
2017-09-04T05:33:51.855Z,14.81
2017-09-04T05:34:51.647Z,14.81
2017-09-04T05:36:45.228Z,14.78
2017-09-04T05:37:45.279Z,14.88
2017-09-04T05:39:39.624Z,14.89
2017-09-04T05:40:47.696Z,14.89
2017-09-04T05:42:34.136Z,14.94
2017-09-04T05:43:34.168Z,14.91
2017-09-04T05:45:28.640Z,14.96
2017-09-04T05:46:28.647Z,15.06
2017-09-04T05:48:23.104Z,14.98
2017-09-04T05:49:23.112Z,15.02
2017-09-04T05:51:17.672Z,15.02
2017-09-04T05:52:17.792Z,15.01
2017-09-04T05:54:12.065Z,15.02
2017-09-04T05:55:12.104Z,15.07
2017-09-04T05:57:07.680Z,15.11
2017-09-04T05:58:07.741Z,15.16
2017-09-04T06:00:01.048Z,15.17
2017-09-04T06:01:01.121Z,15.16
2017-09-04T06:02:55.553Z,15.29
2017-09-04T06:03:55.761Z,15.23
2017-09-04T06:05:50.058Z,15.25
2017-09-04T06:06:50.064Z,15.25
2017-09-04T06:08:44.536Z,15.32
2017-09-04T06:09:44.577Z,15.20
2017-09-04T06:11:39.097Z,15.28
2017-09-04T06:12:39.065Z,15.25
2017-09-04T06:14:33.616Z,15.34
2017-09-04T06:15:33.569Z,15.35
2017-09-04T06:17:28.393Z,15.35
2017-09-04T06:18:27.081Z,15.44
2017-09-04T06:20:21.530Z,15.44
2017-09-04T06:21:21.569Z,15.43
2017-09-04T06:23:16.057Z,15.44
2017-09-04T06:24:16.058Z,15.47
2017-09-04T06:26:10.561Z,15.44
2017-09-04T06:27:10.545Z,15.46
2017-09-04T06:29:05.050Z,15.49
2017-09-04T06:30:13.690Z,15.41
2017-09-04T06:31:59.514Z,15.43
2017-09-04T06:32:59.666Z,15.41
2017-09-04T06:34:54.018Z,15.47
2017-09-04T06:35:54.050Z,15.47
2017-09-04T06:37:48.506Z,15.50
2017-09-04T06:38:48.522Z,15.51
2017-09-04T06:40:41.986Z,15.59
2017-09-04T06:41:42.162Z,15.60
2017-09-04T06:43:36.538Z,15.62
2017-09-04T06:44:36.619Z,15.69
2017-09-04T06:46:30.978Z,15.54
2017-09-04T06:47:39.682Z,15.64
2017-09-04T06:49:25.499Z,15.67
2017-09-04T06:50:25.506Z,15.72
2017-09-04T06:52:18.982Z,15.78
2017-09-04T06:53:19.002Z,15.75
2017-09-04T06:55:13.491Z,15.78
2017-09-04T06:56:13.475Z,15.75
2017-09-04T06:58:08.052Z,15.84
2017-09-04T06:59:07.971Z,15.87
2017-09-04T07:01:02.475Z,15.83
2017-09-04T07:02:02.467Z,15.89
2017-09-04T07:03:55.931Z,15.97
2017-09-04T07:04:55.963Z,16.04
2017-09-04T07:06:50.594Z,15.96
2017-09-04T07:07:50.459Z,16.11
2017-09-04T07:09:44.931Z,16.07
2017-09-04T07:10:44.947Z,16.17
2017-09-04T07:12:39.459Z,16.11
2017-09-04T07:13:39.587Z,16.20
2017-09-04T07:15:35.003Z,16.25
2017-09-04T07:16:34.931Z,16.27
2017-09-04T07:18:29.411Z,16.38
2017-09-04T07:19:38.116Z,16.35
2017-09-04T07:21:24.132Z,16.39
2017-09-04T07:22:23.932Z,16.57
2017-09-04T07:24:18.571Z,16.49
2017-09-04T07:25:18.427Z,16.58
2017-09-04T07:27:12.916Z,16.70
2017-09-04T07:28:12.916Z,16.75
2017-09-04T07:30:07.356Z,16.73
2017-09-04T07:31:07.396Z,16.86
2017-09-04T07:33:02.056Z,16.93
2017-09-04T07:34:01.884Z,16.98
2017-09-04T07:36:05.044Z,17.14
2017-09-04T07:37:05.061Z,17.19
2017-09-04T07:38:50.871Z,17.22
2017-09-04T07:39:50.885Z,17.30
2017-09-04T07:41:45.352Z,17.31
2017-09-04T07:42:45.500Z,17.52
2017-09-04T07:44:39.861Z,17.51
2017-09-04T07:45:41.005Z,17.62
2017-09-04T07:47:34.324Z,17.84
2017-09-04T07:48:34.508Z,17.82
2017-09-04T07:50:28.852Z,18.02
2017-09-04T07:51:28.877Z,18.10
2017-09-04T07:53:22.405Z,18.23
2017-09-04T07:54:22.429Z,18.18
2017-09-04T07:56:15.933Z,18.33
2017-09-04T07:57:15.965Z,18.52
2017-09-04T07:59:10.478Z,18.69
2017-09-04T08:00:10.461Z,18.76
2017-09-04T08:02:04.982Z,18.82
2017-09-04T08:03:05.001Z,18.91
2017-09-04T08:04:59.590Z,19.14
2017-09-04T08:05:59.550Z,19.19
2017-09-04T08:07:53.973Z,19.32
2017-09-04T08:08:53.997Z,19.32
2017-09-04T08:10:48.454Z,19.55
2017-09-04T08:11:48.495Z,19.56
2017-09-04T08:13:41.998Z,19.78
2017-09-04T08:14:42.039Z,19.81
2017-09-04T08:16:36.534Z,19.92
2017-09-04T08:17:36.591Z,20.01
2017-09-04T08:19:29.982Z,20.14
2017-09-04T08:20:30.030Z,20.17
2017-09-04T08:22:24.462Z,20.32
2017-09-04T08:23:24.519Z,20.42
2017-09-04T08:25:19.007Z,20.48
2017-09-04T08:26:26.671Z,20.59
2017-09-04T08:28:13.494Z,20.67
2017-09-04T08:29:13.558Z,20.79
2017-09-04T08:31:08.038Z,20.98
2017-09-04T08:32:08.047Z,20.97
2017-09-04T08:34:02.576Z,21.10
2017-09-04T08:35:02.550Z,21.17
2017-09-04T08:36:57.070Z,21.46
2017-09-04T08:37:57.055Z,21.59
2017-09-04T08:39:51.527Z,21.75
2017-09-04T08:40:51.622Z,21.77
2017-09-04T08:42:46.164Z,22.00
2017-09-04T08:43:46.103Z,22.06
2017-09-04T08:45:40.583Z,22.25
2017-09-04T08:46:40.719Z,22.30
2017-09-04T08:48:35.087Z,22.52
2017-09-04T08:49:35.199Z,22.49
2017-09-04T08:51:29.631Z,22.65
2017-09-04T08:52:29.735Z,22.68
2017-09-04T08:54:24.112Z,22.95
2017-09-04T08:55:24.160Z,23.07
2017-09-04T08:57:18.664Z,23.31
2017-09-04T08:58:18.721Z,23.51
2017-09-04T09:00:14.656Z,23.48
2017-09-04T09:01:14.704Z,23.63
2017-09-04T09:03:09.184Z,23.87
2017-09-04T09:04:09.200Z,24.08
2017-09-04T09:06:02.680Z,24.13
2017-09-04T09:07:02.744Z,24.16
2017-09-04T09:08:57.224Z,24.42
2017-09-04T09:09:57.272Z,24.43
2017-09-04T09:11:50.712Z,24.78
2017-09-04T09:12:50.759Z,24.91
2017-09-04T09:14:44.264Z,25.17
2017-09-04T09:15:44.264Z,25.25
2017-09-04T09:17:38.760Z,25.42
2017-09-04T09:18:39.785Z,25.50
2017-09-04T09:20:33.281Z,25.55
2017-09-04T09:21:33.297Z,25.72
2017-09-04T09:23:27.810Z,25.99
2017-09-04T09:24:27.857Z,26.02
2017-09-04T09:26:22.337Z,26.12
2017-09-04T09:27:22.377Z,26.33
2017-09-04T09:29:16.945Z,26.63
2017-09-04T09:30:16.914Z,26.76
2017-09-04T09:32:11.450Z,26.88
2017-09-04T09:33:11.441Z,27.09
2017-09-04T09:35:05.938Z,27.27
2017-09-04T09:36:06.026Z,27.37
2017-09-04T09:38:00.570Z,27.60
2017-09-04T09:39:00.657Z,27.79
2017-09-04T09:40:55.026Z,27.96
2017-09-04T09:41:55.018Z,28.00
2017-09-04T09:43:49.497Z,28.24
2017-09-04T09:44:49.546Z,28.30
2017-09-04T09:46:44.050Z,28.40
2017-09-04T09:47:44.074Z,28.34
2017-09-04T09:49:37.547Z,28.76
2017-09-04T09:50:37.594Z,28.88
2017-09-04T09:52:33.386Z,29.09
2017-09-04T09:53:33.114Z,29.27
2017-09-04T09:55:26.603Z,29.52
2017-09-04T09:56:26.651Z,29.55
2017-09-04T09:58:21.139Z,29.64
2017-09-04T09:59:21.171Z,29.68
2017-09-04T10:01:15.682Z,29.89
2017-09-04T10:02:15.707Z,30.02
2017-09-04T10:04:10.167Z,30.34
2017-09-04T10:05:10.199Z,30.46
2017-09-04T10:07:04.711Z,30.75
2017-09-04T10:08:04.768Z,30.83
2017-09-04T10:09:59.207Z,30.77
2017-09-04T10:10:59.255Z,30.97
2017-09-04T10:12:52.759Z,31.16
2017-09-04T10:13:52.811Z,31.14
2017-09-04T10:15:47.282Z,31.44
2017-09-04T10:16:47.319Z,31.69
2017-09-04T10:18:41.832Z,31.96
2017-09-04T10:19:41.847Z,32.29
2017-09-04T10:21:37.967Z,32.60
2017-09-04T10:22:37.984Z,32.70
2017-09-04T10:24:32.435Z,33.07
2017-09-04T10:25:32.448Z,33.23
2017-09-04T10:27:26.927Z,33.66
2017-09-04T10:28:26.976Z,33.60
2017-09-04T10:30:21.472Z,33.93
2017-09-04T10:31:21.504Z,33.93
2017-09-04T10:33:15.983Z,34.12
2017-09-04T10:34:16.024Z,34.24
2017-09-04T10:36:09.520Z,34.53
2017-09-04T10:37:09.544Z,34.88
2017-09-04T10:39:04.024Z,35.31
2017-09-04T10:40:04.072Z,35.52
2017-09-04T10:41:58.680Z,35.72
2017-09-04T10:42:58.593Z,35.65
2017-09-04T10:44:53.089Z,36.07
2017-09-04T10:45:53.137Z,36.32
2017-09-04T10:47:47.648Z,36.39
2017-09-04T10:48:47.696Z,36.28
2017-09-04T10:50:42.145Z,36.38
2017-09-04T10:51:42.193Z,36.56
2017-09-04T10:53:36.713Z,36.99
2017-09-04T10:54:36.737Z,37.20
2017-09-04T10:56:31.281Z,37.82
2017-09-04T10:57:31.297Z,38.03
2017-09-04T10:59:25.793Z,38.11
2017-09-04T11:00:25.849Z,38.09
2017-09-04T11:02:20.354Z,38.38
2017-09-04T11:03:20.369Z,38.54
2017-09-04T11:05:14.874Z,38.81
2017-09-04T11:06:14.905Z,38.74
2017-09-04T11:08:09.403Z,38.90
2017-09-04T11:09:09.435Z,39.06
2017-09-04T11:11:03.954Z,39.54
2017-09-04T11:12:03.962Z,39.73
2017-09-04T11:13:57.474Z,40.18
2017-09-04T11:14:57.514Z,40.32
2017-09-04T11:16:52.050Z,40.77
2017-09-04T11:17:52.050Z,41.06
2017-09-04T11:19:48.090Z,41.41
2017-09-04T11:20:48.162Z,41.80
2017-09-04T11:22:41.651Z,42.12
2017-09-04T11:23:41.698Z,42.12
2017-09-04T11:25:36.332Z,42.45
2017-09-04T11:26:36.419Z,42.65
2017-09-04T11:28:30.939Z,43.19
2017-09-04T11:29:30.946Z,43.46
2017-09-04T11:31:25.434Z,43.64
2017-09-04T11:32:25.499Z,43.79
2017-09-04T11:34:19.994Z,44.16
2017-09-04T11:35:20.059Z,44.43
2017-09-04T11:37:13.507Z,44.95
2017-09-04T11:38:13.555Z,45.21
2017-09-04T11:40:07.092Z,45.62
2017-09-04T11:41:07.107Z,45.81
2017-09-04T11:43:01.619Z,46.34
2017-09-04T11:44:01.651Z,46.68
2017-09-04T11:45:56.211Z,47.06
2017-09-04T11:46:56.252Z,47.03
2017-09-04T11:48:50.704Z,47.12
2017-09-04T11:49:50.775Z,47.22
2017-09-04T11:51:45.256Z,47.69
2017-09-04T11:52:45.298Z,47.80
2017-09-04T11:54:39.783Z,48.04
2017-09-04T11:55:39.832Z,48.23
2017-09-04T11:57:35.350Z,48.28
2017-09-04T11:58:35.368Z,48.21
2017-09-04T12:00:28.984Z,48.14
2017-09-04T12:01:29.008Z,48.29
2017-09-04T12:03:22.624Z,47.64
2017-09-04T12:04:22.664Z,47.63
2017-09-04T12:06:17.176Z,48.60
2017-09-04T12:07:17.216Z,48.99
2017-09-04T12:09:11.703Z,49.82
2017-09-04T12:10:11.727Z,50.22
2017-09-04T12:12:07.736Z,50.82
2017-09-04T12:13:07.759Z,51.08
2017-09-04T12:15:01.239Z,50.25
2017-09-04T12:16:01.296Z,50.45
2017-09-04T12:17:54.815Z,51.05
2017-09-04T12:18:54.839Z,51.24
2017-09-04T12:20:49.360Z,51.96
2017-09-04T12:21:49.384Z,51.81
2017-09-04T12:23:43.880Z,52.09
2017-09-04T12:24:43.928Z,51.94
2017-09-04T12:26:38.456Z,52.05
2017-09-04T12:27:38.488Z,52.42
2017-09-04T12:29:33.016Z,52.58
2017-09-04T12:30:33.032Z,52.82
2017-09-04T12:32:27.537Z,50.66
2017-09-04T12:33:27.560Z,49.62
2017-09-04T12:35:22.080Z,49.59
2017-09-04T12:36:22.128Z,48.70
2017-09-04T12:38:15.624Z,49.70
2017-09-04T12:39:15.640Z,50.63
2017-09-04T12:41:10.121Z,51.74
2017-09-04T12:42:10.168Z,52.22
2017-09-04T12:44:04.713Z,51.82
2017-09-04T12:45:04.712Z,50.13
2017-09-04T12:46:58.177Z,48.35
2017-09-04T12:47:58.225Z,49.02
2017-09-04T12:49:51.728Z,50.18
2017-09-04T12:50:51.753Z,50.18
2017-09-04T12:52:45.249Z,50.30
2017-09-04T12:53:45.305Z,49.62
2017-09-04T12:55:38.873Z,51.01
2017-09-04T12:56:38.889Z,51.15
2017-09-04T12:58:32.377Z,51.74
2017-09-04T12:59:32.433Z,52.00
2017-09-04T13:01:25.450Z,52.69
2017-09-04T13:02:25.482Z,53.08
2017-09-04T13:04:19.953Z,52.36
2017-09-04T13:05:20.001Z,52.41
2017-09-04T13:07:13.018Z,53.05
2017-09-04T13:08:13.057Z,52.57
2017-09-04T13:10:07.554Z,52.63
2017-09-04T13:11:07.602Z,52.89
2017-09-04T13:13:02.138Z,53.18
2017-09-04T13:14:02.146Z,53.56
2017-09-04T13:15:55.626Z,54.07
2017-09-04T13:16:55.674Z,54.06
2017-09-04T13:18:49.182Z,54.25
2017-09-04T13:19:49.210Z,54.34
2017-09-04T13:21:42.694Z,54.25
2017-09-04T13:22:42.747Z,54.19
2017-09-04T13:24:35.754Z,54.56
2017-09-04T13:25:35.786Z,54.80
2017-09-04T13:27:29.277Z,54.23
2017-09-04T13:28:29.322Z,54.20
2017-09-04T13:30:23.827Z,54.16
2017-09-04T13:31:23.859Z,53.75
2017-09-04T13:33:18.363Z,53.39
2017-09-04T13:34:18.395Z,52.95
2017-09-04T13:36:11.907Z,52.53
2017-09-04T13:37:11.931Z,52.12
2017-09-04T13:39:04.907Z,50.97
2017-09-04T13:40:04.963Z,50.12
2017-09-04T13:41:58.483Z,48.02
2017-09-04T13:42:58.491Z,47.07
2017-09-04T13:44:52.971Z,45.92
2017-09-04T13:45:53.035Z,45.29
2017-09-04T13:47:47.540Z,43.98
2017-09-04T13:48:47.580Z,43.61
2017-09-04T13:50:42.043Z,42.81
2017-09-04T13:51:42.093Z,42.46
2017-09-04T13:53:36.595Z,41.47
2017-09-04T13:54:36.625Z,41.41
2017-09-04T13:56:31.099Z,40.87
2017-09-04T13:57:31.143Z,40.58
2017-09-04T13:59:25.636Z,40.13
2017-09-04T14:00:25.665Z,39.97
2017-09-04T14:02:20.732Z,39.64
2017-09-04T14:03:20.180Z,39.57
2017-09-04T14:05:13.692Z,39.36
2017-09-04T14:06:13.724Z,39.23
2017-09-04T14:08:07.268Z,39.40
2017-09-04T14:09:07.318Z,39.50
2017-09-04T14:11:01.828Z,39.33
2017-09-04T14:12:02.819Z,39.55
2017-09-04T14:13:56.341Z,39.89
2017-09-04T14:14:56.388Z,40.22
2017-09-04T14:16:50.876Z,40.26
2017-09-04T14:17:50.900Z,40.12
2017-09-04T14:19:45.381Z,40.06
2017-09-04T14:20:45.414Z,39.79
2017-09-04T14:22:39.918Z,39.75
2017-09-04T14:23:39.932Z,39.63
2017-09-04T14:25:33.429Z,39.45
2017-09-04T14:26:33.446Z,39.41
2017-09-04T14:28:27.957Z,38.95
2017-09-04T14:29:27.981Z,38.84
2017-09-04T14:31:21.486Z,38.54
2017-09-04T14:32:21.501Z,38.34
2017-09-04T14:34:14.517Z,38.12
2017-09-04T14:35:14.541Z,37.74
2017-09-04T14:37:08.013Z,37.31
2017-09-04T14:38:08.055Z,37.07
2017-09-04T14:40:01.549Z,36.75
2017-09-04T14:41:01.573Z,36.53
2017-09-04T14:42:55.070Z,36.43
2017-09-04T14:43:55.089Z,36.35
2017-09-04T14:45:49.557Z,36.13
2017-09-04T14:46:49.598Z,36.07
2017-09-04T14:48:44.094Z,35.68
2017-09-04T14:49:44.118Z,35.60
2017-09-04T14:51:38.622Z,35.55
2017-09-04T14:52:38.628Z,35.41
2017-09-04T14:54:33.102Z,34.96
2017-09-04T14:55:33.142Z,34.81
2017-09-04T14:57:27.630Z,34.24
2017-09-04T14:58:27.678Z,34.08
2017-09-04T15:00:21.126Z,33.95
2017-09-04T15:01:21.166Z,33.86
2017-09-04T15:03:14.190Z,33.87
2017-09-04T15:04:14.208Z,33.81
2017-09-04T15:06:07.678Z,33.75
2017-09-04T15:07:07.725Z,33.76
2017-09-04T15:09:02.214Z,33.56
2017-09-04T15:10:02.238Z,33.54
2017-09-04T15:11:55.726Z,33.51
2017-09-04T15:12:55.750Z,33.38
2017-09-04T15:14:50.247Z,33.19
2017-09-04T15:15:50.262Z,33.11
2017-09-04T15:17:43.735Z,32.96
2017-09-04T15:18:43.775Z,32.93
2017-09-04T15:20:38.287Z,32.89
2017-09-04T15:21:38.295Z,32.89
2017-09-04T15:23:31.760Z,32.59
2017-09-04T15:24:31.792Z,32.62
2017-09-04T15:26:26.312Z,32.57
2017-09-04T15:27:26.311Z,32.57
2017-09-04T15:29:19.784Z,32.52
2017-09-04T15:30:19.840Z,32.43
2017-09-04T15:32:13.303Z,32.30
2017-09-04T15:33:13.335Z,32.26
2017-09-04T15:35:06.815Z,32.00
2017-09-04T15:36:06.840Z,31.92
2017-09-04T15:38:01.321Z,31.86
2017-09-04T15:39:01.360Z,31.68
2017-09-04T15:40:54.352Z,31.66
2017-09-04T15:41:54.376Z,31.70
2017-09-04T15:43:47.880Z,31.68
2017-09-04T15:44:47.888Z,31.68
2017-09-04T15:46:41.352Z,31.84
2017-09-04T15:47:41.384Z,31.76
2017-09-04T15:49:34.880Z,31.76
2017-09-04T15:50:34.896Z,31.72
2017-09-04T15:52:29.392Z,31.63
2017-09-04T15:53:29.408Z,31.62
2017-09-04T15:55:22.872Z,31.36
2017-09-04T15:56:22.912Z,31.29
2017-09-04T15:58:17.409Z,31.14
2017-09-04T15:59:17.416Z,31.02
2017-09-04T16:01:10.411Z,30.76
2017-09-04T16:02:10.457Z,30.64
2017-09-04T16:04:04.434Z,30.70
2017-09-04T16:05:03.953Z,30.80
2017-09-04T16:06:56.929Z,30.61
2017-09-04T16:07:57.945Z,30.70
2017-09-04T16:09:50.457Z,30.58
2017-09-04T16:10:50.481Z,30.61
2017-09-04T16:12:43.961Z,30.60
2017-09-04T16:13:43.985Z,30.57
2017-09-04T16:15:38.482Z,30.47
2017-09-04T16:16:38.505Z,30.51
2017-09-04T16:18:32.970Z,30.49
2017-09-04T16:19:33.009Z,30.47
2017-09-04T16:21:26.537Z,30.35
2017-09-04T16:22:26.530Z,30.32
2017-09-04T16:24:19.986Z,30.27
2017-09-04T16:25:20.033Z,30.24
2017-09-04T16:27:13.514Z,30.20
2017-09-04T16:28:13.546Z,30.19
2017-09-04T16:30:08.034Z,30.13
2017-09-04T16:31:08.058Z,30.05
2017-09-04T16:33:01.035Z,30.11
2017-09-04T16:34:01.067Z,30.05
2017-09-04T16:35:54.539Z,30.01
2017-09-04T16:36:54.571Z,30.07
2017-09-04T16:38:48.069Z,29.98
2017-09-04T16:39:48.085Z,29.90
2017-09-04T16:41:41.053Z,29.89
2017-09-04T16:42:41.093Z,29.92
2017-09-04T16:44:34.581Z,30.05
2017-09-04T16:45:34.605Z,29.86
2017-09-04T16:47:28.093Z,29.83
2017-09-04T16:48:28.117Z,29.89
2017-09-04T16:50:21.583Z,29.89
2017-09-04T16:51:21.630Z,29.87
2017-09-04T16:53:15.109Z,29.78
2017-09-04T16:54:15.133Z,29.78
2017-09-04T16:56:08.165Z,29.74
2017-09-04T16:57:08.174Z,29.58
2017-09-04T16:59:01.638Z,29.53
2017-09-04T17:00:01.678Z,29.57
2017-09-04T17:01:56.173Z,29.43
2017-09-04T17:02:56.198Z,29.43
2017-09-04T17:04:49.166Z,29.28
2017-09-04T17:05:49.207Z,29.36
2017-09-04T17:07:42.710Z,29.14
2017-09-04T17:08:42.702Z,29.12
2017-09-04T17:10:37.207Z,28.76
2017-09-04T17:11:37.222Z,28.68
2017-09-04T17:13:30.718Z,28.59
2017-09-04T17:14:30.742Z,28.55
2017-09-04T17:16:24.222Z,28.44
2017-09-04T17:17:24.246Z,28.48
2017-09-04T17:19:18.753Z,28.30
2017-09-04T17:20:18.742Z,28.36
2017-09-04T17:22:11.783Z,28.19
2017-09-04T17:23:11.766Z,28.24
2017-09-04T17:25:05.302Z,28.15
2017-09-04T17:26:05.310Z,28.14
2017-09-04T17:27:58.768Z,28.14
2017-09-04T17:28:58.822Z,28.09
2017-09-04T17:30:53.816Z,28.12
2017-09-04T17:31:53.320Z,28.03
2017-09-04T17:33:46.824Z,27.93
2017-09-04T17:34:46.833Z,27.88
2017-09-04T17:36:40.295Z,27.87
2017-09-04T17:37:40.352Z,27.77
2017-09-04T17:39:33.845Z,27.67
2017-09-04T17:40:33.857Z,27.63
2017-09-04T17:42:27.356Z,27.41
2017-09-04T17:43:27.352Z,27.46
2017-09-04T17:45:20.817Z,27.34
2017-09-04T17:46:20.857Z,27.34
2017-09-04T17:48:15.355Z,27.13
2017-09-04T17:49:15.369Z,27.18
2017-09-04T17:51:09.841Z,27.14
2017-09-04T17:52:09.881Z,27.07
2017-09-04T17:54:03.386Z,27.06
2017-09-04T17:55:03.388Z,27.00
2017-09-04T17:56:56.842Z,26.88
2017-09-04T17:57:56.889Z,26.84
2017-09-04T17:59:50.385Z,26.75
2017-09-04T18:00:50.386Z,26.75
2017-09-04T18:02:43.849Z,26.81
2017-09-04T18:03:43.889Z,26.67
2017-09-04T18:05:37.362Z,26.52
2017-09-04T18:06:37.393Z,26.50
2017-09-04T18:08:31.378Z,26.54
2017-09-04T18:09:30.906Z,26.44
2017-09-04T18:11:25.410Z,26.33
2017-09-04T18:12:25.450Z,26.37
2017-09-04T18:14:18.882Z,26.25
2017-09-04T18:15:18.922Z,26.20
2017-09-04T18:17:12.450Z,26.10
2017-09-04T18:18:12.482Z,26.10
2017-09-04T18:20:05.915Z,26.10
2017-09-04T18:21:06.947Z,26.12
2017-09-04T18:23:00.426Z,26.05
2017-09-04T18:24:00.474Z,26.02
2017-09-04T18:25:53.915Z,25.95
2017-09-04T18:26:53.954Z,25.91
2017-09-04T18:28:48.578Z,25.90
2017-09-04T18:29:48.586Z,25.83
2017-09-04T18:31:43.066Z,25.85
2017-09-04T18:32:43.116Z,25.77
2017-09-04T18:34:36.619Z,25.75
2017-09-04T18:35:36.619Z,25.72
2017-09-04T18:37:30.195Z,25.69
2017-09-04T18:38:30.147Z,25.67
2017-09-04T18:40:24.683Z,25.51
2017-09-04T18:41:24.731Z,25.55